createdAt,value
2018-05-21T00:00:38.633Z,10.32
2018-05-21T00:03:06.240Z,10.22
2018-05-21T00:05:33.851Z,10.17
2018-05-21T00:08:01.430Z,10.12
2018-05-21T00:10:29.317Z,10.07
2018-05-21T00:12:56.900Z,10.09
2018-05-21T00:15:25.197Z,10.06
2018-05-21T00:17:52.769Z,10.02
2018-05-21T00:20:20.372Z,10.00
2018-05-21T00:22:47.937Z,9.96
2018-05-21T00:25:15.545Z,9.95
2018-05-21T00:27:43.739Z,9.92
2018-05-21T00:30:11.345Z,9.88
2018-05-21T00:32:38.997Z,9.79
2018-05-21T00:35:06.579Z,9.76
2018-05-21T00:37:34.148Z,9.78
2018-05-21T00:40:01.803Z,9.77
2018-05-21T00:42:29.407Z,9.69
2018-05-21T00:44:56.975Z,9.75
2018-05-21T00:47:24.596Z,9.72
2018-05-21T00:49:52.165Z,9.68
2018-05-21T00:52:19.737Z,9.68
2018-05-21T00:54:59.245Z,9.64
2018-05-21T00:57:26.813Z,9.59
2018-05-21T00:59:54.421Z,9.55
2018-05-21T01:02:22.034Z,9.50
2018-05-21T01:04:49.608Z,9.53
2018-05-21T01:07:17.233Z,9.52
2018-05-21T01:09:44.807Z,9.50
2018-05-21T01:12:12.385Z,9.53
2018-05-21T01:14:40.293Z,9.39
2018-05-21T01:17:07.860Z,9.41
2018-05-21T01:19:35.465Z,9.49
2018-05-21T01:22:03.071Z,9.55
2018-05-21T01:24:30.708Z,9.48
2018-05-21T01:26:58.284Z,9.46
2018-05-21T01:29:25.897Z,9.45
2018-05-21T01:31:53.503Z,9.44
2018-05-21T01:34:21.116Z,9.30
2018-05-21T01:36:48.701Z,9.29
2018-05-21T01:39:16.948Z,9.21
2018-05-21T01:41:45.291Z,9.13
2018-05-21T01:44:12.877Z,9.09
2018-05-21T01:46:40.486Z,9.01
2018-05-21T01:49:08.097Z,8.93
2018-05-21T01:51:35.812Z,8.94
2018-05-21T01:54:03.429Z,8.94
2018-05-21T01:56:31.053Z,8.88
2018-05-21T01:58:58.669Z,8.88
2018-05-21T02:01:26.280Z,8.86
2018-05-21T02:03:53.899Z,8.71
2018-05-21T02:06:21.472Z,8.69
2018-05-21T02:08:49.092Z,8.67
2018-05-21T02:11:16.661Z,8.57
2018-05-21T02:13:44.453Z,8.69
2018-05-21T02:16:12.026Z,8.39
2018-05-21T02:18:39.602Z,8.38
2018-05-21T02:21:07.209Z,8.47
2018-05-21T02:23:34.805Z,8.53
2018-05-21T02:26:03.113Z,8.49
2018-05-21T02:28:30.731Z,8.50
2018-05-21T02:30:58.867Z,8.49
2018-05-21T02:33:26.470Z,8.45
2018-05-21T02:35:54.092Z,8.46
2018-05-21T02:38:21.652Z,8.51
2018-05-21T02:40:49.256Z,8.55
2018-05-21T02:43:17.011Z,8.55
2018-05-21T02:45:44.615Z,8.56
2018-05-21T02:48:12.213Z,8.48
2018-05-21T02:50:39.828Z,8.50
2018-05-21T02:53:07.436Z,8.52
2018-05-21T02:55:35.042Z,8.58
2018-05-21T02:58:02.664Z,8.62
2018-05-21T03:00:30.276Z,8.60
2018-05-21T03:02:58.169Z,8.57
2018-05-21T03:05:25.747Z,8.61
2018-05-21T03:07:53.317Z,8.64
2018-05-21T03:10:21.467Z,8.68
2018-05-21T03:12:49.084Z,8.63
2018-05-21T03:15:16.696Z,8.63
2018-05-21T03:17:44.307Z,8.57
2018-05-21T03:20:11.897Z,8.42
2018-05-21T03:22:39.505Z,8.47
2018-05-21T03:25:07.421Z,8.51
2018-05-21T03:27:34.995Z,8.60
2018-05-21T03:30:02.651Z,8.60
2018-05-21T03:32:30.252Z,8.67
2018-05-21T03:34:57.860Z,8.53
2018-05-21T03:37:25.688Z,8.58
2018-05-21T03:39:53.269Z,8.60
2018-05-21T03:42:20.845Z,8.64
2018-05-21T03:44:48.457Z,8.68
2018-05-21T03:47:16.025Z,8.73
2018-05-21T03:49:43.594Z,8.69
2018-05-21T03:52:11.213Z,8.76
2018-05-21T03:54:38.794Z,8.76
2018-05-21T03:57:06.519Z,8.81
2018-05-21T03:59:45.913Z,8.86
2018-05-21T04:02:25.616Z,8.85
2018-05-21T04:04:53.185Z,8.95
2018-05-21T04:07:20.749Z,9.05
2018-05-21T04:09:50.257Z,9.12
2018-05-21T04:12:17.820Z,9.20
2018-05-21T04:14:45.432Z,9.16
2018-05-21T04:17:13.040Z,9.32
2018-05-21T04:19:40.653Z,9.37
2018-05-21T04:22:08.218Z,9.44
2018-05-21T04:24:35.833Z,9.49
2018-05-21T04:27:03.409Z,9.60
2018-05-21T04:29:31.070Z,9.67
2018-05-21T04:31:58.669Z,9.82
2018-05-21T04:34:26.305Z,9.99
2018-05-21T04:36:53.925Z,10.02
2018-05-21T04:39:21.540Z,10.23
2018-05-21T04:41:49.161Z,10.49
2018-05-21T04:44:16.777Z,11.03
2018-05-21T04:46:45.145Z,12.22
2018-05-21T04:49:12.792Z,13.77
2018-05-21T04:51:40.377Z,14.98
2018-05-21T04:54:07.992Z,15.56
2018-05-21T04:56:35.926Z,16.13
2018-05-21T04:59:03.566Z,16.83
2018-05-21T05:01:31.145Z,16.79
2018-05-21T05:03:58.725Z,16.91
2018-05-21T05:06:26.330Z,16.88
2018-05-21T05:08:53.940Z,17.27
2018-05-21T05:11:23.229Z,16.53
2018-05-21T05:13:50.817Z,17.07
2018-05-21T05:16:18.425Z,17.23
2018-05-21T05:18:46.007Z,17.73
2018-05-21T05:21:13.666Z,17.87
2018-05-21T05:23:41.293Z,19.62
2018-05-21T05:26:08.900Z,20.38
2018-05-21T05:28:36.559Z,20.23
2018-05-21T05:31:04.141Z,20.72
2018-05-21T05:33:31.765Z,20.48
2018-05-21T05:35:59.455Z,20.87
2018-05-21T05:38:27.029Z,21.35
2018-05-21T05:40:54.645Z,22.01
2018-05-21T05:43:22.272Z,22.12
2018-05-21T05:45:50.594Z,22.67
2018-05-21T05:48:18.334Z,21.93
2018-05-21T05:50:46.052Z,23.40
2018-05-21T05:53:13.632Z,23.39
2018-05-21T05:55:41.258Z,24.30
2018-05-21T05:58:09.337Z,24.57
2018-05-21T06:00:36.957Z,25.27
2018-05-21T06:03:04.541Z,24.48
2018-05-21T06:05:32.165Z,23.56
2018-05-21T06:07:59.739Z,23.41
2018-05-21T06:10:27.338Z,24.64
2018-05-21T06:12:54.973Z,24.60
2018-05-21T06:15:22.550Z,24.34
2018-05-21T06:17:50.175Z,24.62
2018-05-21T06:20:17.754Z,24.37
2018-05-21T06:22:45.372Z,24.18
2018-05-21T06:25:12.949Z,24.41
2018-05-21T06:27:40.572Z,23.17
2018-05-21T06:30:08.148Z,23.65
2018-05-21T06:32:35.945Z,24.28
2018-05-21T06:35:03.570Z,24.55
2018-05-21T06:37:31.147Z,24.89
2018-05-21T06:39:58.765Z,24.39
2018-05-21T06:42:26.418Z,23.86
2018-05-21T06:44:54.017Z,21.47
2018-05-21T06:47:21.667Z,20.50
2018-05-21T06:49:49.290Z,20.70
2018-05-21T06:52:16.866Z,21.69
2018-05-21T06:54:44.485Z,22.97
2018-05-21T06:57:12.069Z,22.93
2018-05-21T06:59:39.701Z,23.88
2018-05-21T07:02:07.286Z,23.13
2018-05-21T07:04:34.881Z,22.74
2018-05-21T07:07:02.488Z,24.15
2018-05-21T07:09:30.096Z,24.86
2018-05-21T07:11:58.540Z,26.29
2018-05-21T07:14:26.135Z,25.81
2018-05-21T07:16:53.741Z,24.81
2018-05-21T07:19:21.927Z,23.86
2018-05-21T07:21:49.514Z,23.12
2018-05-21T07:24:17.127Z,23.13
2018-05-21T07:26:44.701Z,22.84
2018-05-21T07:29:12.312Z,21.80
2018-05-21T07:31:39.890Z,22.08
2018-05-21T07:34:07.523Z,22.47
2018-05-21T07:36:35.101Z,21.73
2018-05-21T07:39:02.742Z,23.14
2018-05-21T07:41:30.317Z,23.37
2018-05-21T07:43:58.101Z,24.38
2018-05-21T07:46:25.735Z,23.96
2018-05-21T07:48:53.310Z,22.85
2018-05-21T07:51:20.914Z,23.56
2018-05-21T07:53:48.539Z,24.57
2018-05-21T07:56:16.389Z,25.34
2018-05-21T07:58:44.002Z,25.75
2018-05-21T08:01:12.204Z,24.17
2018-05-21T08:03:39.813Z,23.98
2018-05-21T08:06:07.453Z,24.09
2018-05-21T08:08:35.022Z,24.73
2018-05-21T08:11:02.651Z,25.28
2018-05-21T08:13:30.229Z,24.98
2018-05-21T08:15:59.125Z,25.23
2018-05-21T08:18:26.740Z,25.27
2018-05-21T08:20:54.389Z,24.84
2018-05-21T08:23:22.001Z,25.00
2018-05-21T08:25:49.848Z,24.47
2018-05-21T08:28:17.497Z,24.58
2018-05-21T08:30:45.093Z,25.50
2018-05-21T08:33:13.054Z,26.21
2018-05-21T08:35:41.276Z,24.27
2018-05-21T08:38:12.058Z,24.15
2018-05-21T08:40:39.966Z,24.39
2018-05-21T08:43:07.589Z,24.00
2018-05-21T08:45:35.641Z,23.74
2018-05-21T08:48:03.929Z,23.00
2018-05-21T08:50:31.565Z,22.96
2018-05-21T08:52:59.613Z,23.11
2018-05-21T08:55:27.232Z,22.97
2018-05-21T08:57:55.513Z,23.15
2018-05-21T09:00:23.509Z,23.45
2018-05-21T09:02:51.485Z,23.79
2018-05-21T09:05:19.122Z,23.86
2018-05-21T09:07:58.852Z,23.41
2018-05-21T09:10:29.454Z,23.78
2018-05-21T09:12:59.181Z,23.54
2018-05-21T09:15:27.437Z,23.46
2018-05-21T09:17:55.564Z,22.81
2018-05-21T09:20:24.031Z,22.92
2018-05-21T09:22:52.013Z,22.95
2018-05-21T09:25:20.219Z,23.03
2018-05-21T09:27:48.901Z,23.19
2018-05-21T09:30:16.631Z,23.85
2018-05-21T09:32:44.437Z,23.99
2018-05-21T09:35:12.386Z,23.01
2018-05-21T09:37:41.136Z,22.79
2018-05-21T09:40:09.551Z,23.42
2018-05-21T09:42:37.884Z,23.36
2018-05-21T09:45:05.465Z,23.17
2018-05-21T09:47:33.058Z,23.29
2018-05-21T09:50:00.697Z,22.84
2018-05-21T09:52:28.306Z,22.86
2018-05-21T09:54:55.891Z,23.00
2018-05-21T09:57:23.517Z,22.81
2018-05-21T09:59:51.165Z,23.54
2018-05-21T10:02:18.742Z,23.59
2018-05-21T10:04:46.349Z,24.14
2018-05-21T10:07:13.980Z,23.71
2018-05-21T10:09:41.593Z,23.40
2018-05-21T10:12:09.296Z,23.99
2018-05-21T10:14:36.930Z,23.90
2018-05-21T10:17:04.513Z,23.73
2018-05-21T10:19:32.241Z,24.00
2018-05-21T10:21:59.765Z,24.07
2018-05-21T10:24:27.379Z,23.93
2018-05-21T10:26:55.713Z,23.75
2018-05-21T10:29:23.339Z,23.93
2018-05-21T10:31:50.966Z,23.81
2018-05-21T10:34:18.557Z,24.37
2018-05-21T10:36:46.176Z,24.37
2018-05-21T10:39:13.816Z,23.78
2018-05-21T10:41:41.393Z,23.60
2018-05-21T10:44:09.618Z,23.61
2018-05-21T10:46:37.204Z,23.64
2018-05-21T10:49:04.787Z,23.87
2018-05-21T10:51:32.398Z,24.15
2018-05-21T10:54:00.030Z,24.51
2018-05-21T10:56:27.736Z,24.58
2018-05-21T10:58:55.392Z,23.88
2018-05-21T11:01:23.005Z,23.79
2018-05-21T11:03:50.660Z,23.92
2018-05-21T11:06:18.330Z,24.15
2018-05-21T11:08:45.950Z,23.33
2018-05-21T11:11:13.568Z,23.11
2018-05-21T11:13:41.143Z,23.62
2018-05-21T11:16:08.806Z,23.92
2018-05-21T11:18:36.433Z,23.75
2018-05-21T11:21:04.010Z,23.25
2018-05-21T11:23:31.856Z,23.23
2018-05-21T11:26:00.051Z,23.59
2018-05-21T11:28:30.068Z,23.66
2018-05-21T11:30:58.400Z,23.72
2018-05-21T11:33:26.001Z,24.00
2018-05-21T11:35:53.612Z,24.07
2018-05-21T11:38:21.214Z,23.87
2018-05-21T11:40:48.840Z,24.24
2018-05-21T11:43:16.437Z,24.43
2018-05-21T11:45:44.130Z,24.30
2018-05-21T11:48:13.142Z,24.16
2018-05-21T11:50:40.798Z,24.01
2018-05-21T11:53:08.727Z,23.69
2018-05-21T11:55:36.334Z,23.44
2018-05-21T11:58:03.969Z,23.83
2018-05-21T12:00:31.611Z,24.26
2018-05-21T12:02:59.237Z,24.19
2018-05-21T12:05:27.018Z,23.85
2018-05-21T12:07:54.611Z,23.76
2018-05-21T12:10:22.232Z,23.82
2018-05-21T12:12:54.835Z,23.97
2018-05-21T12:15:22.661Z,23.90
2018-05-21T12:17:50.237Z,23.66
2018-05-21T12:20:17.853Z,23.38
2018-05-21T12:22:45.416Z,23.73
2018-05-21T12:25:13.036Z,24.06
2018-05-21T12:27:45.033Z,24.08
2018-05-21T12:30:13.456Z,24.26
2018-05-21T12:32:41.128Z,24.15
2018-05-21T12:35:08.733Z,24.46
2018-05-21T12:37:37.030Z,24.38
2018-05-21T12:40:08.195Z,23.98
2018-05-21T12:42:38.674Z,23.80
2018-05-21T12:45:06.505Z,23.70
2018-05-21T12:47:34.325Z,23.86
2018-05-21T12:50:01.993Z,23.89
2018-05-21T12:52:29.649Z,23.81
2018-05-21T12:54:57.252Z,23.72
2018-05-21T12:57:24.893Z,23.64
2018-05-21T12:59:53.763Z,23.93
2018-05-21T13:02:21.390Z,23.97
2018-05-21T13:04:48.981Z,24.11
2018-05-21T13:07:16.789Z,24.39
2018-05-21T13:09:44.464Z,24.34
2018-05-21T13:12:12.090Z,24.50
2018-05-21T13:14:39.677Z,24.44
2018-05-21T13:17:07.315Z,24.35
2018-05-21T13:19:34.929Z,24.12
2018-05-21T13:22:03.580Z,23.97
2018-05-21T13:24:31.205Z,24.09
2018-05-21T13:26:58.833Z,24.30
2018-05-21T13:29:26.849Z,24.51
2018-05-21T13:31:54.431Z,24.20
2018-05-21T13:34:22.019Z,24.25
2018-05-21T13:36:49.645Z,23.99
2018-05-21T13:39:17.298Z,24.19
2018-05-21T13:41:44.909Z,24.53
2018-05-21T13:44:12.774Z,24.38
2018-05-21T13:46:40.426Z,24.33
2018-05-21T13:49:08.077Z,24.24
2018-05-21T13:51:35.692Z,24.21
2018-05-21T13:54:03.274Z,23.87
2018-05-21T13:56:30.893Z,23.64
2018-05-21T13:58:58.490Z,23.81
2018-05-21T14:01:26.128Z,24.08
2018-05-21T14:03:53.709Z,24.33
2018-05-21T14:06:21.289Z,24.28
2018-05-21T14:08:48.901Z,24.46
2018-05-21T14:11:16.472Z,24.34
2018-05-21T14:13:44.093Z,24.33
2018-05-21T14:16:11.675Z,24.39
2018-05-21T14:18:39.253Z,24.34
2018-05-21T14:21:06.881Z,23.98
2018-05-21T14:23:34.500Z,23.99
2018-05-21T14:26:02.068Z,24.03
2018-05-21T14:28:29.693Z,23.83
2018-05-21T14:30:57.293Z,24.03
2018-05-21T14:33:24.913Z,23.87
2018-05-21T14:35:52.517Z,23.86
2018-05-21T14:38:20.165Z,23.93
2018-05-21T14:40:47.794Z,23.94
2018-05-21T14:43:15.377Z,23.94
2018-05-21T14:45:42.953Z,24.28
2018-05-21T14:48:11.215Z,24.22
2018-05-21T14:50:38.874Z,24.37
2018-05-21T14:53:06.445Z,24.40
2018-05-21T14:55:34.021Z,24.34
2018-05-21T14:58:01.633Z,24.42
2018-05-21T15:00:29.215Z,24.23
2018-05-21T15:02:56.828Z,23.83
2018-05-21T15:05:24.425Z,23.98
2018-05-21T15:07:52.041Z,24.07
2018-05-21T15:10:19.621Z,24.17
2018-05-21T15:12:47.240Z,24.11
2018-05-21T15:15:14.833Z,23.96
2018-05-21T15:17:42.457Z,23.93
2018-05-21T15:20:10.039Z,24.05
2018-05-21T15:22:37.661Z,24.15
2018-05-21T15:25:05.236Z,24.15
2018-05-21T15:27:32.900Z,24.01
2018-05-21T15:30:00.473Z,23.94
2018-05-21T15:32:28.101Z,23.48
2018-05-21T15:34:55.932Z,23.32
2018-05-21T15:37:23.696Z,23.25
2018-05-21T15:39:51.322Z,23.29
2018-05-21T15:42:19.273Z,23.31
2018-05-21T15:44:46.866Z,23.23
2018-05-21T15:47:14.490Z,23.31
2018-05-21T15:49:42.097Z,23.28
2018-05-21T15:52:09.669Z,23.23
2018-05-21T15:54:37.289Z,23.12
2018-05-21T15:57:04.870Z,23.13
2018-05-21T15:59:32.458Z,23.13
2018-05-21T16:02:00.660Z,23.17
2018-05-21T16:04:28.278Z,23.21
2018-05-21T16:06:55.889Z,23.21
2018-05-21T16:09:23.505Z,23.16
2018-05-21T16:11:51.319Z,23.17
2018-05-21T16:14:18.897Z,23.21
2018-05-21T16:16:46.520Z,23.08
2018-05-21T16:19:14.440Z,23.04
2018-05-21T16:21:42.049Z,23.07
2018-05-21T16:24:09.653Z,23.09
2018-05-21T16:26:38.161Z,23.05
2018-05-21T16:29:06.269Z,22.95
2018-05-21T16:31:35.244Z,22.87
2018-05-21T16:34:02.857Z,22.87
2018-05-21T16:36:30.473Z,22.88
2018-05-21T16:39:14.256Z,22.80
2018-05-21T16:41:48.237Z,22.70
2018-05-21T16:44:15.813Z,22.70
2018-05-21T16:46:43.947Z,22.70
2018-05-21T16:49:11.573Z,22.65
2018-05-21T16:51:39.166Z,22.72
2018-05-21T16:54:06.826Z,22.69
2018-05-21T16:56:34.456Z,22.58
2018-05-21T16:59:02.641Z,22.53
2018-05-21T17:01:30.363Z,22.59
2018-05-21T17:03:58.109Z,22.57
2018-05-21T17:06:25.750Z,22.50
2018-05-21T17:08:53.416Z,22.46
2018-05-21T17:11:21.025Z,22.37
2018-05-21T17:13:49.885Z,22.39
2018-05-21T17:16:18.604Z,22.31
2018-05-21T17:18:49.844Z,22.26
2018-05-21T17:21:17.709Z,22.26
2018-05-21T17:23:48.976Z,22.17
2018-05-21T17:26:16.826Z,22.11
2018-05-21T17:28:44.445Z,22.09
2018-05-21T17:31:14.020Z,22.09
2018-05-21T17:33:44.363Z,22.11
2018-05-21T17:36:13.650Z,22.07
2018-05-21T17:38:42.069Z,22.08
2018-05-21T17:41:09.636Z,22.03
2018-05-21T17:43:37.261Z,21.99
2018-05-21T17:46:05.021Z,21.91
2018-05-21T17:48:32.597Z,21.82
2018-05-21T17:51:00.210Z,21.78
2018-05-21T17:53:27.780Z,21.77
2018-05-21T17:55:55.397Z,21.71
2018-05-21T17:58:23.010Z,21.66
2018-05-21T18:00:50.618Z,21.65
2018-05-21T18:03:20.507Z,21.61
2018-05-21T18:05:48.482Z,21.50
2018-05-21T18:08:16.069Z,21.50
2018-05-21T18:10:43.696Z,21.44
2018-05-21T18:13:11.265Z,21.37
2018-05-21T18:15:38.864Z,21.30
2018-05-21T18:18:08.581Z,21.18
2018-05-21T18:20:36.437Z,21.15
2018-05-21T18:23:04.355Z,21.00
2018-05-21T18:25:31.934Z,20.91
2018-05-21T18:27:59.557Z,20.82
2018-05-21T18:30:27.131Z,20.69
2018-05-21T18:32:54.700Z,20.46
2018-05-21T18:35:22.315Z,20.33
2018-05-21T18:37:50.629Z,20.18
2018-05-21T18:40:18.389Z,20.13
2018-05-21T18:42:46.814Z,20.00
2018-05-21T18:45:14.886Z,19.87
2018-05-21T18:47:42.468Z,19.77
2018-05-21T18:50:15.583Z,19.75
2018-05-21T18:52:43.460Z,19.79
2018-05-21T18:55:11.085Z,19.76
2018-05-21T18:57:38.869Z,19.65
2018-05-21T19:00:10.139Z,19.65
2018-05-21T19:02:37.891Z,19.54
2018-05-21T19:05:05.499Z,19.48
2018-05-21T19:07:33.071Z,19.41
2018-05-21T19:10:00.715Z,19.39
2018-05-21T19:12:28.324Z,19.36
2018-05-21T19:14:55.953Z,19.31
2018-05-21T19:17:23.521Z,19.17
2018-05-21T19:19:51.323Z,19.11
2018-05-21T19:22:18.952Z,19.02
2018-05-21T19:24:46.531Z,18.90
2018-05-21T19:27:14.105Z,18.85
2018-05-21T19:29:46.115Z,18.79
2018-05-21T19:32:13.717Z,18.76
2018-05-21T19:34:41.325Z,18.73
2018-05-21T19:37:08.903Z,18.68
2018-05-21T19:39:36.999Z,18.65
2018-05-21T19:42:04.587Z,18.52
2018-05-21T19:44:32.201Z,18.47
2018-05-21T19:46:59.864Z,18.39
2018-05-21T19:49:27.437Z,18.35
2018-05-21T19:51:55.140Z,18.25
2018-05-21T19:54:22.762Z,18.21
2018-05-21T19:56:50.333Z,18.10
2018-05-21T19:59:17.941Z,18.05
2018-05-21T20:01:45.853Z,17.92
2018-05-21T20:04:13.420Z,17.89
2018-05-21T20:06:40.994Z,17.79
2018-05-21T20:09:08.601Z,17.75
2018-05-21T20:11:36.224Z,17.66
2018-05-21T20:14:03.797Z,17.51
2018-05-21T20:16:31.373Z,17.43
2018-05-21T20:18:58.975Z,17.33
2018-05-21T20:21:26.577Z,17.28
2018-05-21T20:23:54.188Z,17.18
2018-05-21T20:26:21.810Z,17.16
2018-05-21T20:28:49.397Z,17.20
2018-05-21T20:31:16.973Z,17.16
2018-05-21T20:33:44.587Z,17.11
2018-05-21T20:36:12.161Z,17.12
2018-05-21T20:38:39.781Z,17.05
2018-05-21T20:41:07.348Z,16.97
2018-05-21T20:43:34.955Z,16.91
2018-05-21T20:46:02.600Z,16.77
2018-05-21T20:48:30.218Z,16.66
2018-05-21T20:50:57.796Z,16.48
2018-05-21T20:53:25.470Z,16.34
2018-05-21T20:55:53.801Z,16.19
2018-05-21T20:58:21.403Z,16.13
2018-05-21T21:00:49.004Z,16.05
2018-05-21T21:03:16.609Z,15.97
2018-05-21T21:05:44.229Z,15.90
2018-05-21T21:08:11.800Z,15.82
2018-05-21T21:10:39.456Z,15.56
2018-05-21T21:13:07.016Z,15.38
2018-05-21T21:15:34.616Z,15.45
2018-05-21T21:18:02.187Z,15.45
2018-05-21T21:20:29.798Z,15.35
2018-05-21T21:22:57.681Z,15.25
2018-05-21T21:25:25.261Z,15.21
2018-05-21T21:27:53.477Z,15.16
2018-05-21T21:30:21.089Z,15.09
2018-05-21T21:32:49.321Z,15.06
2018-05-21T21:35:16.890Z,14.97
2018-05-21T21:37:44.493Z,14.94
2018-05-21T21:40:12.069Z,14.88
2018-05-21T21:42:39.673Z,14.88
2018-05-21T21:45:07.246Z,14.79
2018-05-21T21:47:34.867Z,14.64
2018-05-21T21:50:02.476Z,14.61
2018-05-21T21:52:30.053Z,14.57
2018-05-21T21:54:57.660Z,14.46
2018-05-21T21:57:25.233Z,14.37
2018-05-21T21:59:52.854Z,14.33
2018-05-21T22:02:20.445Z,14.54
2018-05-21T22:04:48.060Z,14.32
2018-05-21T22:07:15.632Z,14.23
2018-05-21T22:09:43.206Z,14.20
2018-05-21T22:12:10.825Z,14.15
2018-05-21T22:14:38.441Z,14.08
2018-05-21T22:17:06.662Z,14.03
2018-05-21T22:19:34.280Z,14.00
2018-05-21T22:22:01.849Z,13.98
2018-05-21T22:24:29.420Z,13.94
2018-05-21T22:26:57.060Z,13.92
2018-05-21T22:29:24.824Z,13.90
2018-05-21T22:31:52.657Z,13.89
2018-05-21T22:34:20.270Z,13.84
2018-05-21T22:36:47.878Z,13.85
2018-05-21T22:39:15.491Z,13.82
2018-05-21T22:41:43.096Z,13.78
2018-05-21T22:44:11.658Z,13.74
2018-05-21T22:46:39.275Z,13.71
2018-05-21T22:49:06.847Z,13.70
2018-05-21T22:51:34.462Z,13.65
2018-05-21T22:54:02.073Z,13.62
2018-05-21T22:56:29.642Z,13.56
2018-05-21T22:58:57.265Z,13.54
2018-05-21T23:01:24.841Z,13.48
2018-05-21T23:03:52.496Z,13.40
2018-05-21T23:06:20.069Z,13.36
2018-05-21T23:08:47.895Z,13.32
2018-05-21T23:11:15.504Z,13.32
2018-05-21T23:13:43.117Z,13.24
2018-05-21T23:16:10.744Z,13.22
2018-05-21T23:18:38.356Z,13.21
2018-05-21T23:21:05.927Z,13.13
2018-05-21T23:23:33.550Z,13.09
2018-05-21T23:26:01.120Z,13.10
2018-05-21T23:28:28.750Z,13.10
2018-05-21T23:30:56.352Z,13.11
2018-05-21T23:33:23.927Z,13.07
2018-05-21T23:35:51.545Z,13.08
2018-05-21T23:38:19.125Z,13.07
2018-05-21T23:40:46.729Z,13.02
2018-05-21T23:43:14.344Z,12.93
2018-05-21T23:45:42.169Z,12.89
2018-05-21T23:48:10.882Z,12.87
2018-05-21T23:50:38.497Z,12.83
2018-05-21T23:53:06.223Z,12.82
2018-05-21T23:55:33.825Z,12.80
2018-05-21T23:58:01.602Z,12.80
